sensor_id;sensor_type;location;lat;lon;timestamp;pressure;altitude;pressure_sealevel;temperature;humidity
68654;BME280;55636;51.108;13.622;2023-03-01T00:00:00;101785.88;;;-3.31;59.92
68654;BME280;55636;51.108;13.622;2023-03-01T00:01:04;101784.19;;;-3.32;59.76
68654;BME280;55636;51.108;13.622;2023-03-01T00:02:07;101778.78;;;-3.32;59.82
68654;BME280;55636;51.108;13.622;2023-03-01T00:03:09;101780.63;;;-3.32;59.90
68654;BME280;55636;51.108;13.622;2023-03-01T00:04:11;101777.06;;;-3.33;59.78
68654;BME280;55636;51.108;13.622;2023-03-01T00:05:14;101778.06;;;-3.34;60.01
68654;BME280;55636;51.108;13.622;2023-03-01T00:06:16;101782.59;;;-3.34;59.79
68654;BME280;55636;51.108;13.622;2023-03-01T00:07:18;101783.59;;;-3.35;59.93
68654;BME280;55636;51.108;13.622;2023-03-01T00:08:21;101794.41;;;-3.35;59.88
68654;BME280;55636;51.108;13.622;2023-03-01T00:09:23;101786.41;;;-3.37;59.86
68654;BME280;55636;51.108;13.622;2023-03-01T00:10:25;101791.13;;;-3.39;59.61
68654;BME280;55636;51.108;13.622;2023-03-01T00:11:31;101789.25;;;-3.39;59.76
68654;BME280;55636;51.108;13.622;2023-03-01T00:12:35;101790.25;;;-3.40;59.75
68654;BME280;55636;51.108;13.622;2023-03-01T00:13:38;101783.16;;;-3.41;59.67
68654;BME280;55636;51.108;13.622;2023-03-01T00:14:41;101780.56;;;-3.42;59.62
68654;BME280;55636;51.108;13.622;2023-03-01T00:15:43;101778.88;;;-3.43;59.61
68654;BME280;55636;51.108;13.622;2023-03-01T00:16:46;101778.00;;;-3.44;59.83
68654;BME280;55636;51.108;13.622;2023-03-01T00:17:48;101780.84;;;-3.45;59.68
68654;BME280;55636;51.108;13.622;2023-03-01T00:18:51;101778.13;;;-3.45;59.75
68654;BME280;55636;51.108;13.622;2023-03-01T00:19:53;101783.69;;;-3.47;59.54
68654;BME280;55636;51.108;13.622;2023-03-01T00:20:55;101774.72;;;-3.47;59.70
68654;BME280;55636;51.108;13.622;2023-03-01T00:21:58;101773.00;;;-3.48;59.64
68654;BME280;55636;51.108;13.622;2023-03-01T00:23:00;101778.56;;;-3.50;59.56
68654;BME280;55636;51.108;13.622;2023-03-01T00:24:04;101770.56;;;-3.51;59.69
68654;BME280;55636;51.108;13.622;2023-03-01T00:25:07;101766.16;;;-3.52;59.64
68654;BME280;55636;51.108;13.622;2023-03-01T00:26:13;101770.84;;;-3.55;59.55
68654;BME280;55636;51.108;13.622;2023-03-01T00:27:16;101770.22;;;-3.58;59.66
68654;BME280;55636;51.108;13.622;2023-03-01T00:28:18;101778.34;;;-3.58;59.47
68654;BME280;55636;51.108;13.622;2023-03-01T00:29:23;101775.78;;;-3.60;59.59
68654;BME280;55636;51.108;13.622;2023-03-01T00:30:26;101775.91;;;-3.61;59.55
68654;BME280;55636;51.108;13.622;2023-03-01T00:31:32;101783.13;;;-3.62;59.61
68654;BME280;55636;51.108;13.622;2023-03-01T00:32:34;101781.56;;;-3.64;59.75
68654;BME280;55636;51.108;13.622;2023-03-01T00:33:36;101777.16;;;-3.65;59.84
68654;BME280;55636;51.108;13.622;2023-03-01T00:34:39;101785.41;;;-3.67;59.81
68654;BME280;55636;51.108;13.622;2023-03-01T00:35:41;101772.88;;;-3.68;59.71
68654;BME280;55636;51.108;13.622;2023-03-01T00:36:44;101766.59;;;-3.68;59.88
68654;BME280;55636;51.108;13.622;2023-03-01T00:37:48;101774.00;;;-3.71;59.78
68654;BME280;55636;51.108;13.622;2023-03-01T00:39:01;101773.13;;;-3.71;59.79
68654;BME280;55636;51.108;13.622;2023-03-01T00:40:04;101773.25;;;-3.73;59.71
68654;BME280;55636;51.108;13.622;2023-03-01T00:41:11;101774.16;;;-3.72;59.99
68654;BME280;55636;51.108;13.622;2023-03-01T00:42:14;101773.41;;;-3.74;59.99
68654;BME280;55636;51.108;13.622;2023-03-01T00:43:16;101769.84;;;-3.75;59.86
68654;BME280;55636;51.108;13.622;2023-03-01T00:44:18;101773.53;;;-3.76;59.79
68654;BME280;55636;51.108;13.622;2023-03-01T00:45:21;101767.25;;;-3.76;59.82
68654;BME280;55636;51.108;13.622;2023-03-01T00:46:26;101772.81;;;-3.78;59.87
68654;BME280;55636;51.108;13.622;2023-03-01T00:47:29;101772.94;;;-3.79;59.87
68654;BME280;55636;51.108;13.622;2023-03-01T00:48:31;101768.53;;;-3.80;60.02
68654;BME280;55636;51.108;13.622;2023-03-01T00:49:35;101770.38;;;-3.81;59.99
68654;BME280;55636;51.108;13.622;2023-03-01T00:50:37;101776.75;;;-3.82;60.08
68654;BME280;55636;51.108;13.622;2023-03-01T00:51:40;101765.13;;;-3.82;59.94
68654;BME280;55636;51.108;13.622;2023-03-01T00:52:43;101759.81;;;-3.84;59.99
68654;BME280;55636;51.108;13.622;2023-03-01T00:53:46;101755.44;;;-3.85;60.03
68654;BME280;55636;51.108;13.622;2023-03-01T00:54:48;101760.94;;;-3.87;60.19
68654;BME280;55636;51.108;13.622;2023-03-01T00:55:51;101753.72;;;-3.86;60.24
68654;BME280;55636;51.108;13.622;2023-03-01T00:56:54;101752.00;;;-3.87;60.11
68654;BME280;55636;51.108;13.622;2023-03-01T00:57:56;101758.38;;;-3.88;60.14
68654;BME280;55636;51.108;13.622;2023-03-01T00:58:58;101750.28;;;-3.88;60.16
68654;BME280;55636;51.108;13.622;2023-03-01T01:00:00;101752.97;;;-3.88;60.17
68654;BME280;55636;51.108;13.622;2023-03-01T01:01:10;101753.09;;;-3.90;60.33
68654;BME280;55636;51.108;13.622;2023-03-01T01:02:19;101750.53;;;-3.91;60.17
68654;BME280;55636;51.108;13.622;2023-03-01T01:03:22;101747.84;;;-3.91;60.19
68654;BME280;55636;51.108;13.622;2023-03-01T01:04:27;101755.09;;;-3.92;60.08
68654;BME280;55636;51.108;13.622;2023-03-01T01:05:30;101755.09;;;-3.92;60.02
68654;BME280;55636;51.108;13.622;2023-03-01T01:06:42;101756.09;;;-3.93;59.97
68654;BME280;55636;51.108;13.622;2023-03-01T01:07:44;101755.22;;;-3.93;59.98
68654;BME280;55636;51.108;13.622;2023-03-01T01:08:47;101759.03;;;-3.96;59.96
68654;BME280;55636;51.108;13.622;2023-03-01T01:09:50;101752.78;;;-3.96;60.02
68654;BME280;55636;51.108;13.622;2023-03-01T01:10:54;101757.34;;;-3.97;59.93
68654;BME280;55636;51.108;13.622;2023-03-01T01:11:56;101747.50;;;-3.98;60.04
68654;BME280;55636;51.108;13.622;2023-03-01T01:13:00;101758.44;;;-3.99;60.13
68654;BME280;55636;51.108;13.622;2023-03-01T01:14:03;101757.56;;;-4.00;60.01
68654;BME280;55636;51.108;13.622;2023-03-01T01:15:06;101761.16;;;-3.99;60.11
68654;BME280;55636;51.108;13.622;2023-03-01T01:16:09;101755.00;;;-4.01;59.94
68654;BME280;55636;51.108;13.622;2023-03-01T01:17:11;101757.72;;;-4.01;60.03
68654;BME280;55636;51.108;13.622;2023-03-01T01:18:15;101754.16;;;-4.02;59.95
68654;BME280;55636;51.108;13.622;2023-03-01T01:19:17;101757.84;;;-4.03;60.20
68654;BME280;55636;51.108;13.622;2023-03-01T01:20:19;101751.72;;;-4.05;60.02
68654;BME280;55636;51.108;13.622;2023-03-01T01:21:23;101754.41;;;-4.05;60.17
68654;BME280;55636;51.108;13.622;2023-03-01T01:22:26;101754.41;;;-4.05;60.18
68654;BME280;55636;51.108;13.622;2023-03-01T01:23:31;101753.56;;;-4.06;60.14
68654;BME280;55636;51.108;13.622;2023-03-01T01:24:33;101753.81;;;-4.09;60.30
68654;BME280;55636;51.108;13.622;2023-03-01T01:25:35;101753.81;;;-4.09;60.14
68654;BME280;55636;51.108;13.622;2023-03-01T01:26:38;101756.50;;;-4.09;60.24
68654;BME280;55636;51.108;13.622;2023-03-01T01:27:40;101757.50;;;-4.10;60.29
68654;BME280;55636;51.108;13.622;2023-03-01T01:28:43;101749.41;;;-4.10;60.38
68654;BME280;55636;51.108;13.622;2023-03-01T01:29:47;101743.28;;;-4.12;60.33
68654;BME280;55636;51.108;13.622;2023-03-01T01:30:49;101751.38;;;-4.12;60.60
68654;BME280;55636;51.108;13.622;2023-03-01T01:31:51;101745.28;;;-4.14;60.56
68654;BME280;55636;51.108;13.622;2023-03-01T01:32:53;101740.72;;;-4.13;60.60
68654;BME280;55636;51.108;13.622;2023-03-01T01:33:58;101740.72;;;-4.13;60.69
68654;BME280;55636;51.108;13.622;2023-03-01T01:35:01;101738.84;;;-4.13;60.62
68654;BME280;55636;51.108;13.622;2023-03-01T01:36:05;101739.88;;;-4.14;60.70
68654;BME280;55636;51.108;13.622;2023-03-01T01:37:08;101735.44;;;-4.15;60.79
68654;BME280;55636;51.108;13.622;2023-03-01T01:38:11;101738.16;;;-4.15;60.77
68654;BME280;55636;51.108;13.622;2023-03-01T01:39:13;101736.44;;;-4.16;60.61
68654;BME280;55636;51.108;13.622;2023-03-01T01:40:15;101736.44;;;-4.16;60.54
68654;BME280;55636;51.108;13.622;2023-03-01T01:41:21;101734.72;;;-4.17;60.66
68654;BME280;55636;51.108;13.622;2023-03-01T01:42:24;101732.00;;;-4.17;60.66
68654;BME280;55636;51.108;13.622;2023-03-01T01:43:29;101734.72;;;-4.17;60.52
68654;BME280;55636;51.108;13.622;2023-03-01T01:44:33;101727.59;;;-4.18;60.57
68654;BME280;55636;51.108;13.622;2023-03-01T01:45:36;101739.41;;;-4.19;60.62
68654;BME280;55636;51.108;13.622;2023-03-01T01:47:03;101740.38;;;-4.20;60.52
68654;BME280;55636;51.108;13.622;2023-03-01T01:48:28;101730.69;;;-4.23;60.52
68654;BME280;55636;51.108;13.622;2023-03-01T01:49:45;101736.22;;;-4.24;60.51
68654;BME280;55636;51.108;13.622;2023-03-01T01:50:59;101728.13;;;-4.24;60.60
68654;BME280;55636;51.108;13.622;2023-03-01T01:52:07;101729.25;;;-4.27;60.53
68654;BME280;55636;51.108;13.622;2023-03-01T01:53:15;101739.16;;;-4.27;60.44
68654;BME280;55636;51.108;13.622;2023-03-01T01:54:21;101742.84;;;-4.28;60.60
68654;BME280;55636;51.108;13.622;2023-03-01T01:55:26;101741.16;;;-4.29;60.55
68654;BME280;55636;51.108;13.622;2023-03-01T01:56:34;101740.28;;;-4.30;60.48
68654;BME280;55636;51.108;13.622;2023-03-01T01:57:43;101735.03;;;-4.31;60.71
68654;BME280;55636;51.108;13.622;2023-03-01T01:58:49;101737.84;;;-4.33;60.45
68654;BME280;55636;51.108;13.622;2023-03-01T01:59:54;101728.88;;;-4.33;60.38
68654;BME280;55636;51.108;13.622;2023-03-01T02:01:00;101723.63;;;-4.35;60.66
68654;BME280;55636;51.108;13.622;2023-03-01T02:02:04;101735.41;;;-4.36;60.56
68654;BME280;55636;51.108;13.622;2023-03-01T02:03:13;101732.81;;;-4.38;60.83
68654;BME280;55636;51.108;13.622;2023-03-01T02:04:20;101726.72;;;-4.40;60.63
68654;BME280;55636;51.108;13.622;2023-03-01T02:05:32;101730.25;;;-4.39;60.83
68654;BME280;55636;51.108;13.622;2023-03-01T02:06:40;101730.41;;;-4.41;60.78
68654;BME280;55636;51.108;13.622;2023-03-01T02:07:47;101724.25;;;-4.43;60.87
68654;BME280;55636;51.108;13.622;2023-03-01T02:08:57;101726.13;;;-4.43;60.75
68654;BME280;55636;51.108;13.622;2023-03-01T02:10:04;101728.81;;;-4.43;60.86
68654;BME280;55636;51.108;13.622;2023-03-01T02:11:08;101723.56;;;-4.45;60.97
68654;BME280;55636;51.108;13.622;2023-03-01T02:12:11;101723.69;;;-4.46;61.02
68654;BME280;55636;51.108;13.622;2023-03-01T02:13:15;101722.81;;;-4.47;60.92
68654;BME280;55636;51.108;13.622;2023-03-01T02:14:18;101721.09;;;-4.48;61.07
68654;BME280;55636;51.108;13.622;2023-03-01T02:15:20;101719.50;;;-4.50;61.15
68654;BME280;55636;51.108;13.622;2023-03-01T02:16:23;101716.81;;;-4.50;61.14
68654;BME280;55636;51.108;13.622;2023-03-01T02:17:25;101722.19;;;-4.50;60.99
68654;BME280;55636;51.108;13.622;2023-03-01T02:18:29;101718.78;;;-4.53;61.21
68654;BME280;55636;51.108;13.622;2023-03-01T02:22:43;101712.78;;;-4.56;61.11
68654;BME280;55636;51.108;13.622;2023-03-01T02:23:47;101711.94;;;-4.57;61.13
68654;BME280;55636;51.108;13.622;2023-03-01T02:26:40;101714.03;;;-4.60;61.38
68654;BME280;55636;51.108;13.622;2023-03-01T02:29:22;101713.28;;;-4.62;61.32
68654;BME280;55636;51.108;13.622;2023-03-01T02:30:25;101716.00;;;-4.62;61.33
68654;BME280;55636;51.108;13.622;2023-03-01T02:31:27;101711.59;;;-4.63;61.51
68654;BME280;55636;51.108;13.622;2023-03-01T02:32:47;101705.34;;;-4.64;61.46
68654;BME280;55636;51.108;13.622;2023-03-01T02:33:52;101705.47;;;-4.65;61.57
68654;BME280;55636;51.108;13.622;2023-03-01T02:34:55;101703.75;;;-4.66;61.63
68654;BME280;55636;51.108;13.622;2023-03-01T02:36:07;101705.59;;;-4.67;61.58
68654;BME280;55636;51.108;13.622;2023-03-01T02:37:15;101706.56;;;-4.68;61.74
68654;BME280;55636;51.108;13.622;2023-03-01T02:38:22;101698.75;;;-4.71;61.66
68654;BME280;55636;51.108;13.622;2023-03-01T02:39:34;101698.63;;;-4.70;61.64
68654;BME280;55636;51.108;13.622;2023-03-01T02:40:40;101696.06;;;-4.71;61.61
68654;BME280;55636;51.108;13.622;2023-03-01T02:41:46;101696.91;;;-4.71;61.57
68654;BME280;55636;51.108;13.622;2023-03-01T02:42:53;101695.19;;;-4.72;61.89
68654;BME280;55636;51.108;13.622;2023-03-01T02:43:56;101697.88;;;-4.72;61.73
68654;BME280;55636;51.108;13.622;2023-03-01T02:44:58;101689.91;;;-4.73;61.52
68654;BME280;55636;51.108;13.622;2023-03-01T02:46:13;101698.84;;;-4.73;61.81
68654;BME280;55636;51.108;13.622;2023-03-01T02:47:16;101685.50;;;-4.74;61.50
68654;BME280;55636;51.108;13.622;2023-03-01T02:48:19;101687.34;;;-4.75;61.65
68654;BME280;55636;51.108;13.622;2023-03-01T02:49:28;101690.06;;;-4.75;61.78
68654;BME280;55636;51.108;13.622;2023-03-01T02:50:57;101689.19;;;-4.75;61.74
68654;BME280;55636;51.108;13.622;2023-03-01T02:53:09;101692.88;;;-4.76;61.80
68654;BME280;55636;51.108;13.622;2023-03-01T02:54:25;101687.59;;;-4.78;61.77
68654;BME280;55636;51.108;13.622;2023-03-01T02:55:30;101691.28;;;-4.79;61.63
68654;BME280;55636;51.108;13.622;2023-03-01T02:56:32;101688.69;;;-4.80;61.88
68654;BME280;55636;51.108;13.622;2023-03-01T02:57:36;101691.41;;;-4.80;61.84
68654;BME280;55636;51.108;13.622;2023-03-01T02:58:41;101693.38;;;-4.82;61.83
68654;BME280;55636;51.108;13.622;2023-03-01T02:59:50;101696.06;;;-4.82;61.82
68654;BME280;55636;51.108;13.622;2023-03-01T03:00:53;101695.22;;;-4.83;61.85
68654;BME280;55636;51.108;13.622;2023-03-01T03:01:56;101695.22;;;-4.83;61.71
68654;BME280;55636;51.108;13.622;2023-03-01T03:02:59;101698.91;;;-4.84;61.83
68654;BME280;55636;51.108;13.622;2023-03-01T03:04:05;101696.34;;;-4.85;61.85
68654;BME280;55636;51.108;13.622;2023-03-01T03:05:13;101700.84;;;-4.86;61.77
68654;BME280;55636;51.108;13.622;2023-03-01T03:06:16;101701.72;;;-4.85;61.85
68654;BME280;55636;51.108;13.622;2023-03-01T03:07:18;101697.31;;;-4.87;61.67
68654;BME280;55636;51.108;13.622;2023-03-01T03:08:21;101696.56;;;-4.89;61.70
68654;BME280;55636;51.108;13.622;2023-03-01T03:09:28;101688.63;;;-4.90;61.83
68654;BME280;55636;51.108;13.622;2023-03-01T03:10:34;101692.16;;;-4.90;61.93
68654;BME280;55636;51.108;13.622;2023-03-01T03:11:39;101689.47;;;-4.90;61.97
68654;BME280;55636;51.108;13.622;2023-03-01T03:12:42;101686.75;;;-4.90;61.71
68654;BME280;55636;51.108;13.622;2023-03-01T03:13:45;101694.00;;;-4.90;61.95
68654;BME280;55636;51.108;13.622;2023-03-01T03:14:50;101689.59;;;-4.91;62.00
68654;BME280;55636;51.108;13.622;2023-03-01T03:15:55;101694.00;;;-4.90;62.07
68654;BME280;55636;51.108;13.622;2023-03-01T03:16:57;101679.69;;;-4.91;61.94
68654;BME280;55636;51.108;13.622;2023-03-01T03:18:00;101677.09;;;-4.92;62.01
68654;BME280;55636;51.108;13.622;2023-03-01T03:19:02;101680.78;;;-4.93;61.91
68654;BME280;55636;51.108;13.622;2023-03-01T03:20:11;101676.38;;;-4.94;62.10
68654;BME280;55636;51.108;13.622;2023-03-01T03:21:14;101679.22;;;-4.96;61.89
68654;BME280;55636;51.108;13.622;2023-03-01T03:22:17;101675.63;;;-4.96;62.06
68654;BME280;55636;51.108;13.622;2023-03-01T03:23:21;101675.63;;;-4.96;61.99
68654;BME280;55636;51.108;13.622;2023-03-01T03:24:23;101674.66;;;-4.95;62.00
68654;BME280;55636;51.108;13.622;2023-03-01T03:25:26;101672.94;;;-4.96;62.01
68654;BME280;55636;51.108;13.622;2023-03-01T03:26:29;101678.34;;;-4.96;62.01
68654;BME280;55636;51.108;13.622;2023-03-01T03:27:32;101683.84;;;-4.98;61.85
68654;BME280;55636;51.108;13.622;2023-03-01T03:28:34;101675.75;;;-4.98;61.88
68654;BME280;55636;51.108;13.622;2023-03-01T03:29:37;101678.47;;;-4.98;61.73
68654;BME280;55636;51.108;13.622;2023-03-01T03:30:40;101676.75;;;-4.99;61.71
68654;BME280;55636;51.108;13.622;2023-03-01T03:31:42;101672.47;;;-5.01;61.75
68654;BME280;55636;51.108;13.622;2023-03-01T03:32:46;101675.16;;;-5.01;61.87
68654;BME280;55636;51.108;13.622;2023-03-01T03:33:54;101679.56;;;-5.00;61.74
68654;BME280;55636;51.108;13.622;2023-03-01T03:34:56;101669.91;;;-5.03;61.76
68654;BME280;55636;51.108;13.622;2023-03-01T03:35:58;101681.53;;;-5.03;61.73
68654;BME280;55636;51.108;13.622;2023-03-01T03:37:01;101679.84;;;-5.04;61.64
68654;BME280;55636;51.108;13.622;2023-03-01T03:38:06;101686.19;;;-5.05;61.67
68654;BME280;55636;51.108;13.622;2023-03-01T03:39:13;101676.38;;;-5.06;61.44
68654;BME280;55636;51.108;13.622;2023-03-01T03:40:16;101674.69;;;-5.07;61.51
68654;BME280;55636;51.108;13.622;2023-03-01T03:41:19;101672.84;;;-5.06;61.43
68654;BME280;55636;51.108;13.622;2023-03-01T03:42:22;101668.44;;;-5.07;61.54
68654;BME280;55636;51.108;13.622;2023-03-01T03:43:25;101663.19;;;-5.09;61.51
68654;BME280;55636;51.108;13.622;2023-03-01T03:44:27;101666.84;;;-5.10;61.32
68654;BME280;55636;51.108;13.622;2023-03-01T03:45:30;101665.13;;;-5.11;61.34
68654;BME280;55636;51.108;13.622;2023-03-01T03:46:37;101664.28;;;-5.11;61.47
68654;BME280;55636;51.108;13.622;2023-03-01T03:47:39;101667.13;;;-5.13;61.32
68654;BME280;55636;51.108;13.622;2023-03-01T03:48:43;101654.63;;;-5.14;61.39
68654;BME280;55636;51.108;13.622;2023-03-01T03:49:46;101663.66;;;-5.15;61.32
68654;BME280;55636;51.108;13.622;2023-03-01T03:50:53;101669.06;;;-5.15;61.43
68654;BME280;55636;51.108;13.622;2023-03-01T03:51:57;101658.53;;;-5.18;61.36
68654;BME280;55636;51.108;13.622;2023-03-01T03:53:04;101665.75;;;-5.18;61.39
68654;BME280;55636;51.108;13.622;2023-03-01T03:54:06;101663.19;;;-5.20;61.50
68654;BME280;55636;51.108;13.622;2023-03-01T03:55:11;101670.44;;;-5.21;61.43
68654;BME280;55636;51.108;13.622;2023-03-01T03:56:13;101668.56;;;-5.20;61.48
68654;BME280;55636;51.108;13.622;2023-03-01T03:57:17;101666.16;;;-5.23;61.54
68654;BME280;55636;51.108;13.622;2023-03-01T03:58:21;101664.28;;;-5.23;61.30
68654;BME280;55636;51.108;13.622;2023-03-01T03:59:24;101666.16;;;-5.23;61.29
68654;BME280;55636;51.108;13.622;2023-03-01T04:00:26;101661.72;;;-5.24;61.29
68654;BME280;55636;51.108;13.622;2023-03-01T04:01:28;101664.44;;;-5.24;61.21
68654;BME280;55636;51.108;13.622;2023-03-01T04:02:31;101661.00;;;-5.26;61.47
68654;BME280;55636;51.108;13.622;2023-03-01T04:03:33;101663.69;;;-5.26;61.35
68654;BME280;55636;51.108;13.622;2023-03-01T04:04:37;101673.75;;;-5.28;61.36
68654;BME280;55636;51.108;13.622;2023-03-01T04:05:40;101666.63;;;-5.29;61.45
68654;BME280;55636;51.108;13.622;2023-03-01T04:06:42;101666.63;;;-5.29;61.36
68654;BME280;55636;51.108;13.622;2023-03-01T04:07:45;101676.56;;;-5.30;61.35
68654;BME280;55636;51.108;13.622;2023-03-01T04:08:47;101676.66;;;-5.31;61.55
68654;BME280;55636;51.108;13.622;2023-03-01T04:09:52;101675.81;;;-5.32;61.35
68654;BME280;55636;51.108;13.622;2023-03-01T04:11:00;101677.66;;;-5.32;61.46
68654;BME280;55636;51.108;13.622;2023-03-01T04:12:22;101677.78;;;-5.34;61.54
68654;BME280;55636;51.108;13.622;2023-03-01T04:13:25;101676.94;;;-5.34;61.58
68654;BME280;55636;51.108;13.622;2023-03-01T04:14:27;101681.56;;;-5.37;61.59
68654;BME280;55636;51.108;13.622;2023-03-01T04:15:30;101677.06;;;-5.36;61.54
68654;BME280;55636;51.108;13.622;2023-03-01T04:16:32;101680.72;;;-5.37;61.59
68654;BME280;55636;51.108;13.622;2023-03-01T04:17:35;101684.38;;;-5.38;61.68
68654;BME280;55636;51.108;13.622;2023-03-01T04:18:40;101688.06;;;-5.39;61.78
68654;BME280;55636;51.108;13.622;2023-03-01T04:19:43;101681.81;;;-5.40;61.66
68654;BME280;55636;51.108;13.622;2023-03-01T04:20:46;101684.66;;;-5.41;61.90
68654;BME280;55636;51.108;13.622;2023-03-01T04:21:50;101683.78;;;-5.42;61.93
68654;BME280;55636;51.108;13.622;2023-03-01T04:23:16;101683.78;;;-5.42;61.93
68654;BME280;55636;51.108;13.622;2023-03-01T04:24:22;101683.06;;;-5.44;61.78
68654;BME280;55636;51.108;13.622;2023-03-01T04:25:25;101675.81;;;-5.43;61.88
68654;BME280;55636;51.108;13.622;2023-03-01T04:26:27;101680.50;;;-5.45;61.91
68654;BME280;55636;51.108;13.622;2023-03-01T04:27:30;101679.63;;;-5.46;61.95
68654;BME280;55636;51.108;13.622;2023-03-01T04:28:35;101677.78;;;-5.45;61.95
68654;BME280;55636;51.108;13.622;2023-03-01T04:29:38;101674.34;;;-5.47;61.91
68654;BME280;55636;51.108;13.622;2023-03-01T04:30:41;101678.03;;;-5.48;62.11
68654;BME280;55636;51.108;13.622;2023-03-01T04:31:44;101674.34;;;-5.47;61.92
68654;BME280;55636;51.108;13.622;2023-03-01T04:32:50;101676.22;;;-5.48;61.91
68654;BME280;55636;51.108;13.622;2023-03-01T04:33:54;101678.03;;;-5.48;62.06
68654;BME280;55636;51.108;13.622;2023-03-01T04:35:00;101675.47;;;-5.50;62.23
68654;BME280;55636;51.108;13.622;2023-03-01T04:36:02;101676.31;;;-5.49;62.15
68654;BME280;55636;51.108;13.622;2023-03-01T04:37:07;101670.06;;;-5.50;62.31
68654;BME280;55636;51.108;13.622;2023-03-01T04:38:13;101665.78;;;-5.53;62.13
68654;BME280;55636;51.108;13.622;2023-03-01T04:39:15;101667.50;;;-5.51;62.21
68654;BME280;55636;51.108;13.622;2023-03-01T04:40:18;101671.03;;;-5.51;62.19
68654;BME280;55636;51.108;13.622;2023-03-01T04:41:22;101662.13;;;-5.51;62.32
68654;BME280;55636;51.108;13.622;2023-03-01T04:42:24;101662.25;;;-5.53;62.18
68654;BME280;55636;51.108;13.622;2023-03-01T04:43:27;101669.34;;;-5.52;62.02
68654;BME280;55636;51.108;13.622;2023-03-01T04:44:29;101662.25;;;-5.53;61.98
68654;BME280;55636;51.108;13.622;2023-03-01T04:45:33;101673.88;;;-5.53;62.06
68654;BME280;55636;51.108;13.622;2023-03-01T04:46:36;101674.00;;;-5.54;61.97
68654;BME280;55636;51.108;13.622;2023-03-01T04:47:40;101674.00;;;-5.54;62.06
68654;BME280;55636;51.108;13.622;2023-03-01T04:48:44;101669.59;;;-5.55;61.96
68654;BME280;55636;51.108;13.622;2023-03-01T04:49:47;101674.13;;;-5.56;61.90
68654;BME280;55636;51.108;13.622;2023-03-01T04:50:49;101672.41;;;-5.57;62.04
68654;BME280;55636;51.108;13.622;2023-03-01T04:51:51;101673.38;;;-5.58;61.87
68654;BME280;55636;51.108;13.622;2023-03-01T04:52:55;101673.38;;;-5.58;61.88
68654;BME280;55636;51.108;13.622;2023-03-01T04:54:01;101673.38;;;-5.58;62.05
68654;BME280;55636;51.108;13.622;2023-03-01T04:55:04;101674.34;;;-5.59;61.97
68654;BME280;55636;51.108;13.622;2023-03-01T04:56:08;101682.44;;;-5.59;61.79
68654;BME280;55636;51.108;13.622;2023-03-01T04:57:10;101674.47;;;-5.60;61.95
68654;BME280;55636;51.108;13.622;2023-03-01T04:58:12;101672.66;;;-5.60;61.74
68654;BME280;55636;51.108;13.622;2023-03-01T04:59:15;101667.38;;;-5.61;61.78
68654;BME280;55636;51.108;13.622;2023-03-01T05:00:17;101670.06;;;-5.61;61.77
68654;BME280;55636;51.108;13.622;2023-03-01T05:01:40;101670.19;;;-5.63;61.77
68654;BME280;55636;51.108;13.622;2023-03-01T05:03:56;101671.16;;;-5.64;61.82
68654;BME280;55636;51.108;13.622;2023-03-01T05:05:05;101676.56;;;-5.64;61.80
68654;BME280;55636;51.108;13.622;2023-03-01T05:06:07;101673.00;;;-5.64;61.74
68654;BME280;55636;51.108;13.622;2023-03-01T05:07:10;101672.16;;;-5.65;61.81
68654;BME280;55636;51.108;13.622;2023-03-01T05:08:15;101671.28;;;-5.65;61.73
68654;BME280;55636;51.108;13.622;2023-03-01T05:09:20;101675.84;;;-5.66;61.75
68654;BME280;55636;51.108;13.622;2023-03-01T05:10:25;101673.25;;;-5.67;61.83
68654;BME280;55636;51.108;13.622;2023-03-01T05:11:27;101666.16;;;-5.68;61.68
68654;BME280;55636;51.108;13.622;2023-03-01T05:12:33;101665.28;;;-5.69;61.66
68654;BME280;55636;51.108;13.622;2023-03-01T05:13:37;101669.81;;;-5.70;61.56
68654;BME280;55636;51.108;13.622;2023-03-01T05:14:40;101668.09;;;-5.71;61.73
68654;BME280;55636;51.108;13.622;2023-03-01T05:15:42;101669.06;;;-5.72;61.56
68654;BME280;55636;51.108;13.622;2023-03-01T05:16:44;101670.06;;;-5.73;61.41
68654;BME280;55636;51.108;13.622;2023-03-01T05:17:48;101668.34;;;-5.74;61.25
68654;BME280;55636;51.108;13.622;2023-03-01T05:18:50;101671.06;;;-5.74;61.48
68654;BME280;55636;51.108;13.622;2023-03-01T05:19:53;101661.25;;;-5.75;61.33
68654;BME280;55636;51.108;13.622;2023-03-01T05:21:09;101663.94;;;-5.75;61.27
68654;BME280;55636;51.108;13.622;2023-03-01T05:22:12;101670.31;;;-5.76;61.42
68654;BME280;55636;51.108;13.622;2023-03-01T05:23:14;101665.91;;;-5.77;61.33
68654;BME280;55636;51.108;13.622;2023-03-01T05:24:16;101670.44;;;-5.77;61.22
68654;BME280;55636;51.108;13.622;2023-03-01T05:25:20;101659.78;;;-5.79;61.20
68654;BME280;55636;51.108;13.622;2023-03-01T05:26:23;101670.56;;;-5.79;61.29
68654;BME280;55636;51.108;13.622;2023-03-01T05:27:30;101660.88;;;-5.81;61.21
68654;BME280;55636;51.108;13.622;2023-03-01T05:28:33;101664.53;;;-5.82;61.30
68654;BME280;55636;51.108;13.622;2023-03-01T05:29:35;101668.13;;;-5.82;61.23
68654;BME280;55636;51.108;13.622;2023-03-01T05:30:38;101661.13;;;-5.84;61.23
68654;BME280;55636;51.108;13.622;2023-03-01T05:31:41;101660.25;;;-5.85;61.36
68654;BME280;55636;51.108;13.622;2023-03-01T05:32:45;101661.13;;;-5.84;61.39
68654;BME280;55636;51.108;13.622;2023-03-01T05:33:47;101661.13;;;-5.84;61.39
68654;BME280;55636;51.108;13.622;2023-03-01T05:34:49;101665.66;;;-5.85;61.37
68654;BME280;55636;51.108;13.622;2023-03-01T05:35:54;101653.28;;;-5.88;61.26
68654;BME280;55636;51.108;13.622;2023-03-01T05:36:56;101656.84;;;-5.87;61.35
68654;BME280;55636;51.108;13.622;2023-03-01T05:37:59;101657.81;;;-5.88;61.28
68654;BME280;55636;51.108;13.622;2023-03-01T05:39:02;101655.97;;;-5.88;61.32
68654;BME280;55636;51.108;13.622;2023-03-01T05:40:04;101656.94;;;-5.89;61.45
68654;BME280;55636;51.108;13.622;2023-03-01T05:41:14;101656.09;;;-5.89;61.43